Terminal Aerodrome Forecast
Issued by NWS Grand Junction, CO

Home | Current Version | Previous Version | Text Only | Print | Product List | Glossary On
Versions: 1 2 3 4 5 6 7 8 9 10 11 12 13 14 15 16 17 18 19 20 21 22 23 24 25 26 27 28 29 30 31 32 33
000
FTUS45 KGJT 192331
TAFGJT
TAF
KGJT 192331Z 2000/2024 18015G25KT P6SM FEW110 BKN200
     FM200300 14016G26KT P6SM OVC110
     FM200500 17010KT P6SM OVC110
     FM201100 15008KT P6SM SCT140
     FM201700 25009KT P6SM BKN090
     FM202100 30008KT P6SM BKN110=

USA.gov is the U.S. government's official web portal to all federal, state and local government web resources and services.